sensor_id;sensor_type;location;lat;lon;timestamp;P1;durP1;ratioP1;P2;durP2;ratioP2
10230;SDS011;62604;49.432;8.680;2022-09-20T00:00:48;3.10;;;2.20;;
10230;SDS011;62604;49.432;8.680;2022-09-20T00:03:17;2.77;;;2.40;;
10230;SDS011;62604;49.432;8.680;2022-09-20T00:05:44;2.50;;;2.03;;
10230;SDS011;62604;49.432;8.680;2022-09-20T00:08:13;3.00;;;2.37;;
10230;SDS011;62604;49.432;8.680;2022-09-20T00:10:41;4.60;;;2.00;;
10230;SDS011;62604;49.432;8.680;2022-09-20T00:13:09;4.40;;;2.03;;
10230;SDS011;62604;49.432;8.680;2022-09-20T00:15:41;4.63;;;1.80;;
10230;SDS011;62604;49.432;8.680;2022-09-20T00:18:10;5.43;;;2.33;;
10230;SDS011;62604;49.432;8.680;2022-09-20T00:20:44;4.53;;;2.37;;
10230;SDS011;62604;49.432;8.680;2022-09-20T00:23:12;4.73;;;2.03;;
10230;SDS011;62604;49.432;8.680;2022-09-20T00:25:39;2.10;;;1.90;;
10230;SDS011;62604;49.432;8.680;2022-09-20T00:28:06;5.10;;;2.47;;
10230;SDS011;62604;49.432;8.680;2022-09-20T00:30:34;4.00;;;1.73;;
10230;SDS011;62604;49.432;8.680;2022-09-20T00:33:02;3.30;;;2.20;;
10230;SDS011;62604;49.432;8.680;2022-09-20T00:35:29;4.90;;;2.20;;
10230;SDS011;62604;49.432;8.680;2022-09-20T00:37:57;3.37;;;2.00;;
10230;SDS011;62604;49.432;8.680;2022-09-20T00:40:24;3.83;;;1.80;;
10230;SDS011;62604;49.432;8.680;2022-09-20T00:42:52;4.27;;;2.13;;
10230;SDS011;62604;49.432;8.680;2022-09-20T00:45:20;2.30;;;2.10;;
10230;SDS011;62604;49.432;8.680;2022-09-20T00:47:49;4.50;;;2.13;;
10230;SDS011;62604;49.432;8.680;2022-09-20T00:50:25;3.00;;;2.10;;
10230;SDS011;62604;49.432;8.680;2022-09-20T00:53:01;2.00;;;1.80;;
10230;SDS011;62604;49.432;8.680;2022-09-20T00:55:32;2.70;;;1.63;;
10230;SDS011;62604;49.432;8.680;2022-09-20T00:58:02;2.20;;;2.00;;
10230;SDS011;62604;49.432;8.680;2022-09-20T01:00:29;2.30;;;1.90;;
10230;SDS011;62604;49.432;8.680;2022-09-20T01:02:58;5.47;;;2.60;;
10230;SDS011;62604;49.432;8.680;2022-09-20T01:05:27;4.53;;;2.73;;
10230;SDS011;62604;49.432;8.680;2022-09-20T01:07:55;5.97;;;1.90;;
10230;SDS011;62604;49.432;8.680;2022-09-20T01:10:24;2.40;;;2.20;;
10230;SDS011;62604;49.432;8.680;2022-09-20T01:12:51;2.50;;;2.13;;
10230;SDS011;62604;49.432;8.680;2022-09-20T01:15:19;3.33;;;2.17;;
10230;SDS011;62604;49.432;8.680;2022-09-20T01:17:49;2.60;;;2.07;;
10230;SDS011;62604;49.432;8.680;2022-09-20T01:20:19;2.20;;;2.00;;
10230;SDS011;62604;49.432;8.680;2022-09-20T01:28:51;3.63;;;2.23;;
10230;SDS011;62604;49.432;8.680;2022-09-20T01:31:27;3.10;;;2.17;;
10230;SDS011;62604;49.432;8.680;2022-09-20T01:33:59;4.30;;;2.13;;
10230;SDS011;62604;49.432;8.680;2022-09-20T01:36:29;3.87;;;2.07;;
10230;SDS011;62604;49.432;8.680;2022-09-20T01:39:04;2.93;;;1.97;;
10230;SDS011;62604;49.432;8.680;2022-09-20T01:41:37;2.80;;;1.93;;
10230;SDS011;62604;49.432;8.680;2022-09-20T01:44:12;2.73;;;2.13;;
10230;SDS011;62604;49.432;8.680;2022-09-20T01:46:48;4.57;;;2.40;;
10230;SDS011;62604;49.432;8.680;2022-09-20T01:49:25;3.40;;;2.70;;
10230;SDS011;62604;49.432;8.680;2022-09-20T01:55:17;3.70;;;2.90;;
10230;SDS011;62604;49.432;8.680;2022-09-20T02:04:36;4.83;;;2.53;;
10230;SDS011;62604;49.432;8.680;2022-09-20T02:10:24;8.03;;;3.40;;
10230;SDS011;62604;49.432;8.680;2022-09-20T02:13:11;11.90;;;5.37;;
10230;SDS011;62604;49.432;8.680;2022-09-20T02:16:12;12.23;;;5.97;;
10230;SDS011;62604;49.432;8.680;2022-09-20T02:19:09;8.23;;;5.07;;
10230;SDS011;62604;49.432;8.680;2022-09-20T02:21:55;9.20;;;5.00;;
10230;SDS011;62604;49.432;8.680;2022-09-20T02:24:43;6.67;;;3.73;;
10230;SDS011;62604;49.432;8.680;2022-09-20T02:27:17;4.23;;;3.30;;
10230;SDS011;62604;49.432;8.680;2022-09-20T02:29:56;3.57;;;2.60;;
10230;SDS011;62604;49.432;8.680;2022-09-20T02:35:34;3.10;;;2.37;;
10230;SDS011;62604;49.432;8.680;2022-09-20T02:38:20;4.27;;;2.67;;
10230;SDS011;62604;49.432;8.680;2022-09-20T02:44:13;4.17;;;2.50;;
10230;SDS011;62604;49.432;8.680;2022-09-20T02:46:47;8.03;;;3.40;;
10230;SDS011;62604;49.432;8.680;2022-09-20T02:49:22;4.70;;;2.60;;
10230;SDS011;62604;49.432;8.680;2022-09-20T02:51:57;5.37;;;3.07;;
10230;SDS011;62604;49.432;8.680;2022-09-20T02:54:32;4.43;;;2.70;;
10230;SDS011;62604;49.432;8.680;2022-09-20T02:57:11;4.23;;;2.87;;
10230;SDS011;62604;49.432;8.680;2022-09-20T02:59:44;4.77;;;3.33;;
10230;SDS011;62604;49.432;8.680;2022-09-20T03:02:18;3.40;;;2.33;;
10230;SDS011;62604;49.432;8.680;2022-09-20T03:04:59;8.90;;;2.57;;
10230;SDS011;62604;49.432;8.680;2022-09-20T03:07:36;2.27;;;2.07;;
10230;SDS011;62604;49.432;8.680;2022-09-20T03:10:22;3.23;;;2.50;;
10230;SDS011;62604;49.432;8.680;2022-09-20T03:12:59;6.00;;;2.83;;
10230;SDS011;62604;49.432;8.680;2022-09-20T03:15:51;3.83;;;2.50;;
10230;SDS011;62604;49.432;8.680;2022-09-20T03:18:28;5.47;;;2.83;;
10230;SDS011;62604;49.432;8.680;2022-09-20T03:21:05;4.43;;;2.40;;
10230;SDS011;62604;49.432;8.680;2022-09-20T03:23:47;2.30;;;2.10;;
10230;SDS011;62604;49.432;8.680;2022-09-20T03:26:28;4.47;;;2.30;;
10230;SDS011;62604;49.432;8.680;2022-09-20T03:29:04;2.93;;;2.60;;
10230;SDS011;62604;49.432;8.680;2022-09-20T03:31:44;3.17;;;2.83;;
10230;SDS011;62604;49.432;8.680;2022-09-20T03:34:29;3.03;;;2.70;;
10230;SDS011;62604;49.432;8.680;2022-09-20T03:37:08;3.43;;;2.33;;
10230;SDS011;62604;49.432;8.680;2022-09-20T03:39:58;6.07;;;2.70;;
10230;SDS011;62604;49.432;8.680;2022-09-20T03:42:43;7.07;;;2.90;;
10230;SDS011;62604;49.432;8.680;2022-09-20T03:48:18;4.77;;;2.53;;
10230;SDS011;62604;49.432;8.680;2022-09-20T03:51:07;3.90;;;3.50;;
10230;SDS011;62604;49.432;8.680;2022-09-20T03:53:50;7.63;;;4.73;;
10230;SDS011;62604;49.432;8.680;2022-09-20T03:56:51;5.73;;;5.17;;
10230;SDS011;62604;49.432;8.680;2022-09-20T03:59:40;4.43;;;3.27;;
10230;SDS011;62604;49.432;8.680;2022-09-20T04:02:52;2.67;;;2.43;;
10230;SDS011;62604;49.432;8.680;2022-09-20T04:05:39;6.67;;;2.27;;
10230;SDS011;62604;49.432;8.680;2022-09-20T04:08:20;4.33;;;2.60;;
10230;SDS011;62604;49.432;8.680;2022-09-20T04:11:01;4.80;;;2.53;;
10230;SDS011;62604;49.432;8.680;2022-09-20T04:13:35;4.23;;;2.87;;
10230;SDS011;62604;49.432;8.680;2022-09-20T04:16:08;5.50;;;5.00;;
10230;SDS011;62604;49.432;8.680;2022-09-20T04:18:47;6.93;;;5.80;;
10230;SDS011;62604;49.432;8.680;2022-09-20T04:21:21;6.20;;;5.60;;
10230;SDS011;62604;49.432;8.680;2022-09-20T04:23:55;8.00;;;2.60;;
10230;SDS011;62604;49.432;8.680;2022-09-20T04:26:29;8.47;;;2.97;;
10230;SDS011;62604;49.432;8.680;2022-09-20T04:29:12;6.57;;;3.00;;
10230;SDS011;62604;49.432;8.680;2022-09-20T04:31:54;3.13;;;2.83;;
10230;SDS011;62604;49.432;8.680;2022-09-20T04:34:30;8.13;;;3.83;;
10230;SDS011;62604;49.432;8.680;2022-09-20T04:37:23;5.27;;;3.43;;
10230;SDS011;62604;49.432;8.680;2022-09-20T04:40:01;8.70;;;3.47;;
10230;SDS011;62604;49.432;8.680;2022-09-20T04:42:55;7.00;;;5.73;;
10230;SDS011;62604;49.432;8.680;2022-09-20T05:00:58;7.40;;;5.40;;
10230;SDS011;62604;49.432;8.680;2022-09-20T05:03:50;6.10;;;5.60;;
10230;SDS011;62604;49.432;8.680;2022-09-20T05:06:52;6.77;;;6.00;;
10230;SDS011;62604;49.432;8.680;2022-09-20T05:09:45;6.73;;;6.13;;
10230;SDS011;62604;49.432;8.680;2022-09-20T05:12:40;8.03;;;5.80;;
10230;SDS011;62604;49.432;8.680;2022-09-20T05:15:35;7.00;;;5.80;;
10230;SDS011;62604;49.432;8.680;2022-09-20T05:18:12;6.30;;;5.70;;
10230;SDS011;62604;49.432;8.680;2022-09-20T05:21:09;6.00;;;5.40;;
10230;SDS011;62604;49.432;8.680;2022-09-20T05:24:00;6.37;;;5.53;;
10230;SDS011;62604;49.432;8.680;2022-09-20T05:26:41;5.83;;;3.40;;
10230;SDS011;62604;49.432;8.680;2022-09-20T05:29:19;5.43;;;3.50;;
10230;SDS011;62604;49.432;8.680;2022-09-20T05:31:55;5.53;;;3.80;;
10230;SDS011;62604;49.432;8.680;2022-09-20T05:34:30;3.90;;;3.00;;
10230;SDS011;62604;49.432;8.680;2022-09-20T05:37:09;6.73;;;3.63;;
10230;SDS011;62604;49.432;8.680;2022-09-20T05:39:48;11.67;;;3.80;;
10230;SDS011;62604;49.432;8.680;2022-09-20T05:42:19;5.63;;;3.67;;
10230;SDS011;62604;49.432;8.680;2022-09-20T05:44:59;5.53;;;3.60;;
10230;SDS011;62604;49.432;8.680;2022-09-20T05:47:43;4.37;;;3.20;;
10230;SDS011;62604;49.432;8.680;2022-09-20T05:53:30;4.70;;;2.97;;
10230;SDS011;62604;49.432;8.680;2022-09-20T05:56:33;8.60;;;3.80;;
10230;SDS011;62604;49.432;8.680;2022-09-20T05:59:21;5.53;;;3.17;;
10230;SDS011;62604;49.432;8.680;2022-09-20T06:02:02;10.33;;;3.73;;
10230;SDS011;62604;49.432;8.680;2022-09-20T06:04:46;7.13;;;3.90;;
10230;SDS011;62604;49.432;8.680;2022-09-20T06:07:24;3.57;;;2.70;;
10230;SDS011;62604;49.432;8.680;2022-09-20T06:10:15;7.57;;;3.77;;
10230;SDS011;62604;49.432;8.680;2022-09-20T06:13:13;4.33;;;3.03;;
10230;SDS011;62604;49.432;8.680;2022-09-20T06:15:56;4.80;;;3.40;;
10230;SDS011;62604;49.432;8.680;2022-09-20T06:18:26;6.43;;;3.70;;
10230;SDS011;62604;49.432;8.680;2022-09-20T06:21:02;6.63;;;3.23;;
10230;SDS011;62604;49.432;8.680;2022-09-20T06:23:39;3.93;;;3.40;;
10230;SDS011;62604;49.432;8.680;2022-09-20T06:26:08;4.70;;;4.30;;
10230;SDS011;62604;49.432;8.680;2022-09-20T06:28:43;6.87;;;5.47;;
10230;SDS011;62604;49.432;8.680;2022-09-20T06:31:15;3.83;;;3.40;;
10230;SDS011;62604;49.432;8.680;2022-09-20T06:33:43;6.30;;;4.20;;
10230;SDS011;62604;49.432;8.680;2022-09-20T06:36:16;10.77;;;6.73;;
10230;SDS011;62604;49.432;8.680;2022-09-20T06:39:06;7.40;;;3.90;;
10230;SDS011;62604;49.432;8.680;2022-09-20T06:41:59;5.30;;;3.80;;
10230;SDS011;62604;49.432;8.680;2022-09-20T06:44:28;11.00;;;3.90;;
10230;SDS011;62604;49.432;8.680;2022-09-20T06:46:55;9.73;;;5.17;;
10230;SDS011;62604;49.432;8.680;2022-09-20T06:49:22;7.07;;;5.33;;
10230;SDS011;62604;49.432;8.680;2022-09-20T06:51:49;5.33;;;4.80;;
10230;SDS011;62604;49.432;8.680;2022-09-20T06:54:17;7.80;;;5.53;;
10230;SDS011;62604;49.432;8.680;2022-09-20T06:56:47;5.50;;;4.97;;
10230;SDS011;62604;49.432;8.680;2022-09-20T06:59:16;7.43;;;4.83;;
10230;SDS011;62604;49.432;8.680;2022-09-20T07:01:45;5.83;;;2.63;;
10230;SDS011;62604;49.432;8.680;2022-09-20T07:04:12;7.37;;;2.90;;
10230;SDS011;62604;49.432;8.680;2022-09-20T07:06:40;7.60;;;3.03;;
10230;SDS011;62604;49.432;8.680;2022-09-20T07:09:08;6.07;;;3.30;;
10230;SDS011;62604;49.432;8.680;2022-09-20T07:11:37;5.57;;;3.87;;
10230;SDS011;62604;49.432;8.680;2022-09-20T07:14:04;7.10;;;4.20;;
10230;SDS011;62604;49.432;8.680;2022-09-20T07:16:32;6.87;;;5.83;;
10230;SDS011;62604;49.432;8.680;2022-09-20T07:19:02;7.60;;;5.60;;
10230;SDS011;62604;49.432;8.680;2022-09-20T07:21:30;4.83;;;4.23;;
10230;SDS011;62604;49.432;8.680;2022-09-20T07:23:58;7.17;;;3.60;;
10230;SDS011;62604;49.432;8.680;2022-09-20T07:26:26;6.00;;;5.50;;
10230;SDS011;62604;49.432;8.680;2022-09-20T07:28:55;8.23;;;6.07;;
10230;SDS011;62604;49.432;8.680;2022-09-20T07:31:24;11.00;;;4.30;;
10230;SDS011;62604;49.432;8.680;2022-09-20T07:33:52;7.50;;;6.40;;
10230;SDS011;62604;49.432;8.680;2022-09-20T07:36:22;8.53;;;6.33;;
10230;SDS011;62604;49.432;8.680;2022-09-20T07:38:49;9.03;;;5.93;;
10230;SDS011;62604;49.432;8.680;2022-09-20T07:41:19;6.18;;;5.57;;
10230;SDS011;62604;49.432;8.680;2022-09-20T07:43:47;9.77;;;4.97;;
10230;SDS011;62604;49.432;8.680;2022-09-20T07:46:14;7.25;;;4.65;;
10230;SDS011;62604;49.432;8.680;2022-09-20T07:48:42;5.25;;;4.80;;
10230;SDS011;62604;49.432;8.680;2022-09-20T07:51:09;4.90;;;4.47;;
10230;SDS011;62604;49.432;8.680;2022-09-20T07:53:39;5.20;;;4.75;;
10230;SDS011;62604;49.432;8.680;2022-09-20T07:56:08;6.88;;;4.57;;
10230;SDS011;62604;49.432;8.680;2022-09-20T07:58:37;4.68;;;4.28;;
10230;SDS011;62604;49.432;8.680;2022-09-20T08:01:04;4.35;;;4.05;;
10230;SDS011;62604;49.432;8.680;2022-09-20T08:03:34;4.60;;;4.20;;
10230;SDS011;62604;49.432;8.680;2022-09-20T08:06:02;3.30;;;2.90;;
10230;SDS011;62604;49.432;8.680;2022-09-20T08:08:31;3.10;;;2.90;;
10230;SDS011;62604;49.432;8.680;2022-09-20T08:11:02;5.70;;;3.53;;
10230;SDS011;62604;49.432;8.680;2022-09-20T08:13:30;3.65;;;2.97;;
10230;SDS011;62604;49.432;8.680;2022-09-20T08:16:01;5.20;;;4.72;;
10230;SDS011;62604;49.432;8.680;2022-09-20T08:18:29;3.80;;;3.33;;
10230;SDS011;62604;49.432;8.680;2022-09-20T08:21:01;4.93;;;4.63;;
10230;SDS011;62604;49.432;8.680;2022-09-20T08:23:30;4.30;;;3.30;;
10230;SDS011;62604;49.432;8.680;2022-09-20T08:25:59;4.47;;;4.03;;
10230;SDS011;62604;49.432;8.680;2022-09-20T08:28:28;5.25;;;4.63;;
10230;SDS011;62604;49.432;8.680;2022-09-20T08:31:00;3.58;;;2.83;;
10230;SDS011;62604;49.432;8.680;2022-09-20T08:33:28;3.60;;;3.13;;
10230;SDS011;62604;49.432;8.680;2022-09-20T08:35:55;3.80;;;3.33;;
10230;SDS011;62604;49.432;8.680;2022-09-20T08:38:22;4.13;;;3.50;;
10230;SDS011;62604;49.432;8.680;2022-09-20T08:40:52;5.40;;;4.97;;
10230;SDS011;62604;49.432;8.680;2022-09-20T08:43:22;6.13;;;5.20;;
10230;SDS011;62604;49.432;8.680;2022-09-20T08:45:55;5.10;;;4.72;;
10230;SDS011;62604;49.432;8.680;2022-09-20T08:48:26;5.97;;;5.45;;
10230;SDS011;62604;49.432;8.680;2022-09-20T08:50:57;5.38;;;4.95;;
10230;SDS011;62604;49.432;8.680;2022-09-20T08:53:25;6.35;;;4.90;;
10230;SDS011;62604;49.432;8.680;2022-09-20T08:55:53;6.53;;;5.20;;
10230;SDS011;62604;49.432;8.680;2022-09-20T08:58:23;5.57;;;5.18;;
10230;SDS011;62604;49.432;8.680;2022-09-20T09:00:51;7.78;;;5.22;;
10230;SDS011;62604;49.432;8.680;2022-09-20T09:03:21;5.65;;;5.22;;
10230;SDS011;62604;49.432;8.680;2022-09-20T09:05:50;5.72;;;5.32;;
10230;SDS011;62604;49.432;8.680;2022-09-20T09:08:18;8.05;;;5.85;;
10230;SDS011;62604;49.432;8.680;2022-09-20T09:10:47;6.00;;;5.50;;
10230;SDS011;62604;49.432;8.680;2022-09-20T09:13:20;5.85;;;5.25;;
10230;SDS011;62604;49.432;8.680;2022-09-20T09:15:53;5.50;;;5.03;;
10230;SDS011;62604;49.432;8.680;2022-09-20T09:18:26;5.50;;;5.00;;
10230;SDS011;62604;49.432;8.680;2022-09-20T09:20:59;8.20;;;5.65;;
10230;SDS011;62604;49.432;8.680;2022-09-20T09:23:29;5.53;;;5.10;;
10230;SDS011;62604;49.432;8.680;2022-09-20T09:26:03;5.75;;;5.40;;
10230;SDS011;62604;49.432;8.680;2022-09-20T09:28:31;6.18;;;5.68;;
10230;SDS011;62604;49.432;8.680;2022-09-20T09:31:10;6.38;;;5.60;;
10230;SDS011;62604;49.432;8.680;2022-09-20T09:33:43;6.80;;;5.90;;
10230;SDS011;62604;49.432;8.680;2022-09-20T09:36:12;6.00;;;5.55;;
10230;SDS011;62604;49.432;8.680;2022-09-20T09:38:41;5.95;;;5.32;;
10230;SDS011;62604;49.432;8.680;2022-09-20T09:41:19;6.10;;;5.40;;
10230;SDS011;62604;49.432;8.680;2022-09-20T09:43:57;6.50;;;6.00;;
10230;SDS011;62604;49.432;8.680;2022-09-20T09:46:29;6.55;;;5.80;;
10230;SDS011;62604;49.432;8.680;2022-09-20T09:49:05;6.00;;;5.40;;
10230;SDS011;62604;49.432;8.680;2022-09-20T09:51:35;5.47;;;5.13;;
10230;SDS011;62604;49.432;8.680;2022-09-20T09:54:03;6.32;;;5.20;;
10230;SDS011;62604;49.432;8.680;2022-09-20T09:56:35;5.82;;;5.40;;
10230;SDS011;62604;49.432;8.680;2022-09-20T09:59:32;5.85;;;5.30;;
10230;SDS011;62604;49.432;8.680;2022-09-20T10:02:15;6.63;;;6.03;;
10230;SDS011;62604;49.432;8.680;2022-09-20T10:04:57;6.30;;;5.40;;
10230;SDS011;62604;49.432;8.680;2022-09-20T10:07:31;7.38;;;5.32;;
10230;SDS011;62604;49.432;8.680;2022-09-20T10:10:11;6.68;;;5.38;;
10230;SDS011;62604;49.432;8.680;2022-09-20T10:12:49;7.38;;;5.22;;
10230;SDS011;62604;49.432;8.680;2022-09-20T10:15:27;5.47;;;4.97;;
10230;SDS011;62604;49.432;8.680;2022-09-20T10:18:13;6.28;;;5.47;;
10230;SDS011;62604;49.432;8.680;2022-09-20T10:21:05;5.68;;;5.13;;
10230;SDS011;62604;49.432;8.680;2022-09-20T10:23:48;7.40;;;5.38;;
10230;SDS011;62604;49.432;8.680;2022-09-20T10:29:25;5.07;;;4.68;;
10230;SDS011;62604;49.432;8.680;2022-09-20T10:32:05;5.30;;;4.95;;
10230;SDS011;62604;49.432;8.680;2022-09-20T10:35:00;6.63;;;5.10;;
10230;SDS011;62604;49.432;8.680;2022-09-20T10:37:42;5.55;;;5.00;;
10230;SDS011;62604;49.432;8.680;2022-09-20T10:40:21;5.50;;;5.00;;
10230;SDS011;62604;49.432;8.680;2022-09-20T10:43:19;4.95;;;4.65;;
10230;SDS011;62604;49.432;8.680;2022-09-20T10:46:02;5.85;;;5.10;;
10230;SDS011;62604;49.432;8.680;2022-09-20T10:48:39;5.97;;;5.68;;
10230;SDS011;62604;49.432;8.680;2022-09-20T10:51:10;5.63;;;5.22;;
10230;SDS011;62604;49.432;8.680;2022-09-20T10:53:52;5.70;;;5.28;;
10230;SDS011;62604;49.432;8.680;2022-09-20T10:56:32;5.72;;;5.40;;
10230;SDS011;62604;49.432;8.680;2022-09-20T11:02:03;5.45;;;5.15;;
10230;SDS011;62604;49.432;8.680;2022-09-20T11:04:50;6.13;;;5.65;;
10230;SDS011;62604;49.432;8.680;2022-09-20T11:07:38;6.20;;;5.45;;
10230;SDS011;62604;49.432;8.680;2022-09-20T11:10:27;5.72;;;5.32;;
10230;SDS011;62604;49.432;8.680;2022-09-20T11:13:01;5.70;;;5.40;;
10230;SDS011;62604;49.432;8.680;2022-09-20T11:15:34;5.93;;;5.30;;
10230;SDS011;62604;49.432;8.680;2022-09-20T11:18:09;5.45;;;5.07;;
10230;SDS011;62604;49.432;8.680;2022-09-20T11:20:48;5.30;;;5.00;;
10230;SDS011;62604;49.432;8.680;2022-09-20T11:23:22;6.13;;;5.70;;
10230;SDS011;62604;49.432;8.680;2022-09-20T11:25:59;5.97;;;5.53;;
10230;SDS011;62604;49.432;8.680;2022-09-20T11:28:36;5.90;;;5.20;;
10230;SDS011;62604;49.432;8.680;2022-09-20T11:31:06;6.40;;;5.80;;
10230;SDS011;62604;49.432;8.680;2022-09-20T11:33:41;5.90;;;5.32;;
10230;SDS011;62604;49.432;8.680;2022-09-20T11:36:14;6.65;;;6.00;;
10230;SDS011;62604;49.432;8.680;2022-09-20T11:38:48;10.40;;;5.60;;
10230;SDS011;62604;49.432;8.680;2022-09-20T11:41:20;5.95;;;5.55;;
10230;SDS011;62604;49.432;8.680;2022-09-20T11:43:51;6.50;;;6.00;;
10230;SDS011;62604;49.432;8.680;2022-09-20T11:46:22;5.50;;;5.20;;
10230;SDS011;62604;49.432;8.680;2022-09-20T11:48:52;5.40;;;5.10;;
10230;SDS011;62604;49.432;8.680;2022-09-20T11:54:28;5.88;;;5.47;;
10230;SDS011;62604;49.432;8.680;2022-09-20T11:57:17;5.47;;;5.00;;
10230;SDS011;62604;49.432;8.680;2022-09-20T11:59:48;7.85;;;7.05;;
10230;SDS011;62604;49.432;8.680;2022-09-20T12:02:19;5.50;;;5.20;;
10230;SDS011;62604;49.432;8.680;2022-09-20T12:04:54;4.13;;;3.85;;
10230;SDS011;62604;49.432;8.680;2022-09-20T12:07:22;4.80;;;4.60;;
10230;SDS011;62604;49.432;8.680;2022-09-20T12:09:54;5.60;;;5.10;;
10230;SDS011;62604;49.432;8.680;2022-09-20T12:12:30;5.15;;;4.82;;
10230;SDS011;62604;49.432;8.680;2022-09-20T12:15:02;3.45;;;3.25;;
10230;SDS011;62604;49.432;8.680;2022-09-20T12:26:35;3.90;;;3.70;;
10230;SDS011;62604;49.432;8.680;2022-09-20T12:38:27;4.78;;;4.53;;
10230;SDS011;62604;49.432;8.680;2022-09-20T12:41:03;4.68;;;3.38;;
10230;SDS011;62604;49.432;8.680;2022-09-20T12:43:47;3.95;;;3.75;;
10230;SDS011;62604;49.432;8.680;2022-09-20T12:46:23;4.63;;;4.43;;
10230;SDS011;62604;49.432;8.680;2022-09-20T12:49:11;4.60;;;4.30;;
10230;SDS011;62604;49.432;8.680;2022-09-20T12:52:20;5.10;;;4.80;;
10230;SDS011;62604;49.432;8.680;2022-09-20T12:58:23;4.95;;;4.70;;
10230;SDS011;62604;49.432;8.680;2022-09-20T13:10:28;3.63;;;3.30;;
10230;SDS011;62604;49.432;8.680;2022-09-20T13:13:03;5.07;;;4.78;;
10230;SDS011;62604;49.432;8.680;2022-09-20T13:15:37;6.18;;;4.72;;
10230;SDS011;62604;49.432;8.680;2022-09-20T13:18:10;5.10;;;4.80;;
10230;SDS011;62604;49.432;8.680;2022-09-20T13:20:39;5.22;;;4.85;;
10230;SDS011;62604;49.432;8.680;2022-09-20T13:23:08;5.00;;;4.65;;
10230;SDS011;62604;49.432;8.680;2022-09-20T13:25:44;5.30;;;5.00;;
10230;SDS011;62604;49.432;8.680;2022-09-20T13:28:15;5.13;;;4.68;;
10230;SDS011;62604;49.432;8.680;2022-09-20T13:30:50;5.10;;;4.80;;
10230;SDS011;62604;49.432;8.680;2022-09-20T13:33:58;5.05;;;4.65;;
10230;SDS011;62604;49.432;8.680;2022-09-20T13:36:38;3.28;;;3.00;;
10230;SDS011;62604;49.432;8.680;2022-09-20T13:39:06;4.57;;;3.30;;
10230;SDS011;62604;49.432;8.680;2022-09-20T13:41:34;3.05;;;2.92;;
10230;SDS011;62604;49.432;8.680;2022-09-20T13:44:02;3.10;;;2.90;;
10230;SDS011;62604;49.432;8.680;2022-09-20T13:46:30;3.75;;;3.55;;
10230;SDS011;62604;49.432;8.680;2022-09-20T13:49:11;3.13;;;2.92;;
10230;SDS011;62604;49.432;8.680;2022-09-20T13:51:41;3.67;;;3.38;;
10230;SDS011;62604;49.432;8.680;2022-09-20T13:54:16;3.10;;;2.90;;
10230;SDS011;62604;49.432;8.680;2022-09-20T13:56:45;3.15;;;2.95;;
10230;SDS011;62604;49.432;8.680;2022-09-20T13:59:13;3.25;;;3.08;;
10230;SDS011;62604;49.432;8.680;2022-09-20T14:01:46;4.70;;;4.40;;
10230;SDS011;62604;49.432;8.680;2022-09-20T14:04:17;5.80;;;5.38;;
10230;SDS011;62604;49.432;8.680;2022-09-20T14:06:47;5.13;;;4.80;;
10230;SDS011;62604;49.432;8.680;2022-09-20T14:09:17;4.93;;;4.53;;
10230;SDS011;62604;49.432;8.680;2022-09-20T14:11:50;4.80;;;4.60;;
10230;SDS011;62604;49.432;8.680;2022-09-20T14:14:18;4.85;;;4.55;;
10230;SDS011;62604;49.432;8.680;2022-09-20T14:16:46;4.90;;;4.60;;
10230;SDS011;62604;49.432;8.680;2022-09-20T14:19:17;4.97;;;4.60;;
10230;SDS011;62604;49.432;8.680;2022-09-20T14:21:46;5.35;;;5.05;;
10230;SDS011;62604;49.432;8.680;2022-09-20T14:24:24;4.75;;;4.45;;
10230;SDS011;62604;49.432;8.680;2022-09-20T14:27:00;4.82;;;4.53;;
10230;SDS011;62604;49.432;8.680;2022-09-20T14:29:36;4.85;;;4.55;;
10230;SDS011;62604;49.432;8.680;2022-09-20T14:32:06;4.70;;;4.40;;
10230;SDS011;62604;49.432;8.680;2022-09-20T14:34:59;4.70;;;4.40;;
10230;SDS011;62604;49.432;8.680;2022-09-20T14:37:31;5.00;;;4.60;;
10230;SDS011;62604;49.432;8.680;2022-09-20T14:40:01;4.72;;;4.43;;
10230;SDS011;62604;49.432;8.680;2022-09-20T14:42:33;4.70;;;4.50;;
10230;SDS011;62604;49.432;8.680;2022-09-20T14:45:01;4.97;;;4.25;;
10230;SDS011;62604;49.432;8.680;2022-09-20T14:47:34;4.30;;;4.10;;
10230;SDS011;62604;49.432;8.680;2022-09-20T14:50:17;4.50;;;4.20;;
10230;SDS011;62604;49.432;8.680;2022-09-20T14:52:58;4.13;;;3.92;;
10230;SDS011;62604;49.432;8.680;2022-09-20T14:55:31;4.40;;;4.10;;
10230;SDS011;62604;49.432;8.680;2022-09-20T14:57:59;4.57;;;4.15;;
10230;SDS011;62604;49.432;8.680;2022-09-20T15:00:28;4.40;;;4.10;;
10230;SDS011;62604;49.432;8.680;2022-09-20T15:03:01;4.03;;;3.83;;
10230;SDS011;62604;49.432;8.680;2022-09-20T15:05:42;4.00;;;3.80;;
10230;SDS011;62604;49.432;8.680;2022-09-20T15:08:13;4.10;;;3.90;;
10230;SDS011;62604;49.432;8.680;2022-09-20T15:10:42;4.20;;;4.00;;
10230;SDS011;62604;49.432;8.680;2022-09-20T15:13:10;4.30;;;4.03;;
10230;SDS011;62604;49.432;8.680;2022-09-20T15:15:37;4.10;;;3.90;;
10230;SDS011;62604;49.432;8.680;2022-09-20T15:18:05;5.00;;;4.00;;
10230;SDS011;62604;49.432;8.680;2022-09-20T15:20:45;4.10;;;3.90;;
10230;SDS011;62604;49.432;8.680;2022-09-20T15:23:12;4.20;;;4.00;;
10230;SDS011;62604;49.432;8.680;2022-09-20T15:25:39;4.30;;;4.10;;
10230;SDS011;62604;49.432;8.680;2022-09-20T15:28:08;4.40;;;4.10;;
10230;SDS011;62604;49.432;8.680;2022-09-20T15:30:39;4.00;;;3.80;;
10230;SDS011;62604;49.432;8.680;2022-09-20T15:33:06;4.05;;;3.75;;
10230;SDS011;62604;49.432;8.680;2022-09-20T15:35:34;4.60;;;4.40;;
10230;SDS011;62604;49.432;8.680;2022-09-20T15:38:03;4.67;;;4.37;;
10230;SDS011;62604;49.432;8.680;2022-09-20T15:40:33;7.20;;;6.60;;
10230;SDS011;62604;49.432;8.680;2022-09-20T15:43:00;7.53;;;6.90;;
10230;SDS011;62604;49.432;8.680;2022-09-20T15:45:27;12.60;;;9.33;;
10230;SDS011;62604;49.432;8.680;2022-09-20T15:47:54;4.73;;;4.40;;
10230;SDS011;62604;49.432;8.680;2022-09-20T15:50:23;4.80;;;4.40;;
10230;SDS011;62604;49.432;8.680;2022-09-20T15:52:50;6.28;;;4.40;;
10230;SDS011;62604;49.432;8.680;2022-09-20T15:55:19;4.93;;;4.53;;
10230;SDS011;62604;49.432;8.680;2022-09-20T15:57:46;5.13;;;4.40;;
10230;SDS011;62604;49.432;8.680;2022-09-20T16:00:14;4.90;;;4.60;;
10230;SDS011;62604;49.432;8.680;2022-09-20T16:02:47;4.60;;;4.30;;
10230;SDS011;62604;49.432;8.680;2022-09-20T16:05:15;4.53;;;4.23;;
10230;SDS011;62604;49.432;8.680;2022-09-20T16:07:42;4.77;;;4.47;;
10230;SDS011;62604;49.432;8.680;2022-09-20T16:10:10;4.80;;;4.40;;
10230;SDS011;62604;49.432;8.680;2022-09-20T16:12:38;4.70;;;4.47;;
10230;SDS011;62604;49.432;8.680;2022-09-20T16:15:06;5.50;;;5.00;;
10230;SDS011;62604;49.432;8.680;2022-09-20T16:17:34;6.17;;;3.37;;
10230;SDS011;62604;49.432;8.680;2022-09-20T16:20:19;6.10;;;5.60;;
10230;SDS011;62604;49.432;8.680;2022-09-20T16:22:47;3.03;;;2.83;;
10230;SDS011;62604;49.432;8.680;2022-09-20T16:25:14;4.93;;;4.63;;
10230;SDS011;62604;49.432;8.680;2022-09-20T16:27:43;4.30;;;3.90;;
10230;SDS011;62604;49.432;8.680;2022-09-20T16:30:11;4.93;;;4.60;;
10230;SDS011;62604;49.432;8.680;2022-09-20T16:32:39;5.20;;;4.90;;
10230;SDS011;62604;49.432;8.680;2022-09-20T16:35:07;5.27;;;4.97;;
10230;SDS011;62604;49.432;8.680;2022-09-20T16:37:35;3.23;;;3.03;;
10230;SDS011;62604;49.432;8.680;2022-09-20T16:40:03;3.23;;;2.43;;
10230;SDS011;62604;49.432;8.680;2022-09-20T16:42:32;4.97;;;4.67;;
10230;SDS011;62604;49.432;8.680;2022-09-20T16:45:01;3.87;;;2.67;;
10230;SDS011;62604;49.432;8.680;2022-09-20T16:47:28;3.37;;;3.17;;
10230;SDS011;62604;49.432;8.680;2022-09-20T16:49:56;2.53;;;2.40;;
10230;SDS011;62604;49.432;8.680;2022-09-20T16:52:23;2.90;;;2.70;;
10230;SDS011;62604;49.432;8.680;2022-09-20T16:54:50;2.70;;;2.50;;
10230;SDS011;62604;49.432;8.680;2022-09-20T16:57:18;6.30;;;5.70;;
10230;SDS011;62604;49.432;8.680;2022-09-20T16:59:46;5.30;;;5.00;;